Airfield :
LOGIN :

Register | Disclaimer

   EN    FR    IT 

 










Legend :    VFR   Marginal VFR   IFR   Intensive IFR   Very Intensive IFR
Visi :
Ceiling :
>= 8 km
>= 3000ft
5 to 8 km
1000 to 3000 ft
1500m to 5 km
500 to 1000 ft
800 to 1500m
200 to 500 ft
< 800m
< 200 ft
Symbols :   Thunderstorms  Fog  Heavy snow  Heavy precipitations  Wind > 20 kt
SIGMETs :     Misc.  Thunderstorms  Icing  Turbulence  Mountain Waves  Volcanic Ashes







- Airport Elevation : 527 ft
- IATA code : DBV


LDDU - Dubrovnik

CURRENT METAR :
  • 191830Z 09007KT 9999 FEW030 19/16 Q1011 NOSIG

EXPIRED METARs :
  • 191800Z 06006KT 020V090 9999 FEW030 20/16 Q1011 BECMG 10009KT
  • 191730Z 10006KT 070V140 9999 FEW030 20/16 Q1011 BECMG 14010KT
  • 191700Z 14005KT 110V170 9999 FEW026 SCT075 21/16 Q1011 BECMG 14010KT
  • 191630Z 15007KT 110V180 9999 FEW030 SCT072 21/15 Q1011 NOSIG
  • 191600Z 15008KT 120V190 9999 FEW023 SCT070 22/15 Q1011 NOSIG

TAF TAF LDDU
Valid from the 19 at 18:00 until the 20 at 18:00 UTC


191725Z 1918/2018 10008KT 9999 FEW020 SCT027 TX19/1918Z TN15/2005Z
PROB30
TEMPO 1919/2003 TSRA FEW020CB BKN027
PROB40
TEMPO 2003/2014 25015G25KT 3000 TSRA SCT020CB BKN027
BECMG 2010/2012 30009KT
No reported NOTAMs for that airfield.



MET'MAP, your aeronautical weather chart ! - Copyright ORBIFLY December 2007 - Disclaimer

ORBIFLY MET'MAP TEAM :

Programming & Development : Alexandra Zaïnal
Concept & Development : Baudouin d'Aumeries
Co-Development & Prog : Marc-Olivier Méhu
Technical & hardware support : Manuel Goepfert

Contact : metmap@orbifly.com




SOURCES & CREDITS :

   NOAA